Siemreap, Cambodia

2:58 AM ICT on December 18, 2014 (GMT +0700)
Siem Reap | Change Station
CLOSE
Current Station
Airport
Location: Siemreap,
Elevation: 49 ft
Nearby Weather Stations

Elev 49 ft 13.37 °N, 103.85 °E | Updated 1 hour ago

Partly Cloudy
Partly Cloudy
68 °F
Feels Like 68 °F
N
12
Wind Variable Wind from North

Today
High -- | Low -- °F
--% Chance of Precip.
Yesterday
High -- | Low -- °F
Precip. -- in
6:20 AM 5:41 PM
Waning Crescent, 20% visible
Pressure 30.01 in
Visibility 5.6 miles
Clouds Few 2000 ft
Dew Point 55 °F
Humidity 64%
Rainfall 0.00 in
Snow Depth Not available.
UV 0 out of 12
Pollen Not available.
Air Quality Not available.
Flu Activity Not available.
METAR VDSR 171800Z 01010KT 9000 FEW020 20/13 Q1016

More Conditions Fewer Conditions

Pressure 30.01 in
Visibility 5.6 miles
Clouds Few 2000 ft
Dew Point 55 °F
Humidity 64%
Rainfall 0.00 in
Snow Depth Not available.
UV 0 out of 12
Pollen Not available.
Air Quality Not available.
Flu Activity Not available.
METAR VDSR 171800Z 01010KT 9000 FEW020 20/13 Q1016

More Conditions Fewer Conditions

10-Day Weather Forecast

Almanac

Astronomy

Dec. 18, 2014 Rise Set
Actual Time
Civil Twilight
Nautical Twilight
Astronomical Twilight
Moon
Length of Visible Light
Length of Day
Tomorrow will be .
, % of the Moon is Illuminated

Today's Extremes

Country Highs Country Lows

Community

WunderPhotos

Upload Photos

1,778,797 photos uploaded!

WunderBlogs® & News

Nearby

Air Quality

  Air Quality AQ Index Pollutant
Not available.

Snow Depth

Station Depth Elevation

Earthquake Activity

City Distance Mag. Time & Date
Minimum magnitude displayed is 2.5.

Coastal Water Temperatures

Place Temperature

Nearby Weather Stations